Eaton Socon, United Kingdom
Current Conditions -  °F | °C
As of 11:20 AM on Thursday 18 Dec 2014 (Local Time) from EGTC Reporting Station
Broken Clouds Broken Clouds  
Wind Chill: 12°   Ceiling: 1200
Heat Index: 12°   Visibility: 6mi
Dew Point: 10°   Wind: 26mph
Humidity: 88%   Direction: 240°WSW
Pressure: 29.74"   Gusts: NA
Location:  52.22°N, 0.29°W
Report Text: EGTC 181120Z 24023KT 9999 BKN012 12/10 Q1007
Loading
Personal Weather Stations






























Interactive Weather Map New forecast layout! Learn more

10-Day Weather Forecast

Advertisements
Track Severe Weather on mobile